Time;durP1;ratioP1;P1;durP2;ratioP2;P2;SDS_P1;SDS_P2;PMS_P1;PMS_P2;Temp;Humidity;BMP_temperature;BMP_pressure;BME280_temperature;BME280_humidity;BME280_pressure;Samples;Min_cycle;Max_cycle;Signal;HPM_P1;HPM_P2
2023/09/21 00:09:53;;;;;;;12.50;7.80;;;;;;;15.10;99.61;100058.50;673185;1266;139971;-76
2023/09/21 00:24:56;;;;;;;17.10;11.20;;;;;;;14.85;99.93;100050.08;673257;1266;139718;-76
2023/09/21 00:40:00;;;;;;;15.20;8.40;;;;;;;14.75;100.00;100045.05;671807;1266;142115;-77
2023/09/21 00:55:05;;;;;;;16.20;10.20;;;;;;;14.67;99.96;100043.80;672896;1266;140099;-77
2023/09/21 01:10:13;;;;;;;14.30;7.80;;;;;;;14.49;99.97;100038.62;672327;1266;140378;-77
2023/09/21 01:25:16;;;;;;;14.10;8.40;;;;;;;14.30;100.00;100039.30;670054;1266;139688;-77
2023/09/21 01:40:19;;;;;;;13.60;8.10;;;;;;;14.15;100.00;100033.34;672711;1260;139849;-76
2023/09/21 01:55:22;;;;;;;17.20;9.60;;;;;;;14.03;100.00;100032.11;669424;1282;139931;-77
2023/09/21 02:10:26;;;;;;;15.80;9.70;;;;;;;13.92;100.00;100029.11;673803;1276;139495;-76
2023/09/21 02:25:32;;;;;;;13.20;9.20;;;;;;;13.93;100.00;100012.30;672202;1270;139929;-77
2023/09/21 02:40:36;;;;;;;18.30;9.70;;;;;;;14.01;100.00;99999.91;674674;1266;139376;-76
2023/09/21 02:55:41;;;;;;;15.80;10.30;;;;;;;14.07;100.00;99991.14;673715;1266;139355;-78
2023/09/21 03:10:45;;;;;;;24.50;13.70;;;;;;;14.05;100.00;99980.59;672860;1279;139571;-76
2023/09/21 03:25:49;;;;;;;26.70;15.30;;;;;;;13.97;100.00;99971.58;670054;1272;140072;-77
2023/09/21 03:40:53;;;;;;;26.20;13.60;;;;;;;13.91;100.00;99970.11;671031;1274;139883;-76
2023/09/21 03:55:57;;;;;;;23.60;13.30;;;;;;;13.85;100.00;99967.83;676283;1265;173524;-75
2023/09/21 04:11:00;;;;;;;28.40;14.00;;;;;;;13.82;100.00;99969.54;673829;1260;140138;-77
2023/09/21 04:26:05;;;;;;;20.90;13.10;;;;;;;13.69;100.00;99974.40;672381;1266;140742;-77
2023/09/21 04:41:14;;;;;;;21.90;12.50;;;;;;;13.75;100.00;99964.65;668655;1266;138938;-77
2023/09/21 04:56:19;;;;;;;18.80;12.90;;;;;;;13.76;100.00;99965.45;668379;1272;140086;-76
2023/09/21 05:11:23;;;;;;;17.80;12.20;;;;;;;13.85;100.00;99948.68;668532;1277;140341;-77
2023/09/21 05:26:27;;;;;;;21.40;14.00;;;;;;;14.09;100.00;99952.45;668632;1263;139926;-77
2023/09/21 05:41:31;;;;;;;20.50;13.50;;;;;;;14.70;100.00;99974.27;668087;1267;139999;-75
2023/09/21 05:56:36;;;;;;;19.50;13.80;;;;;;;15.67;100.00;99967.91;668904;1263;138861;-75
2023/09/21 06:11:40;;;;;;;15.30;9.90;;;;;;;17.38;100.00;99967.63;676075;1257;139943;-76
2023/09/21 06:26:44;;;;;;;12.40;9.00;;;;;;;21.87;89.74;99968.71;677966;1260;137965;-77
2023/09/21 06:41:47;;;;;;;11.40;6.80;;;;;;;24.06;78.96;99959.73;676309;1269;138501;-78
2023/09/21 06:56:51;;;;;;;9.40;5.80;;;;;;;25.07;73.03;99949.80;675496;1257;138295;-75
2023/09/21 07:11:54;;;;;;;8.10;5.10;;;;;;;26.15;68.79;99945.83;675397;1260;138620;-75
2023/09/21 07:26:58;;;;;;;6.20;4.10;;;;;;;26.34;65.72;99941.48;671569;1264;138870;-76
2023/09/21 07:42:04;;;;;;;8.20;4.10;;;;;;;26.59;66.54;99935.33;669306;1262;138895;-78
2023/09/21 07:57:08;;;;;;;9.90;5.80;;;;;;;27.93;62.56;99924.14;669096;1261;137916;-77
2023/09/21 08:12:13;;;;;;;8.10;3.50;;;;;;;28.24;60.11;99911.52;668612;1260;139662;-77
2023/09/21 08:27:18;;;;;;;5.90;2.90;;;;;;;27.79;58.21;99903.12;670322;1263;138674;-77
2023/09/21 08:42:21;;;;;;;5.50;3.00;;;;;;;27.70;57.76;99892.63;670044;1262;137969;-79
2023/09/21 08:57:25;;;;;;;12.40;5.40;;;;;;;28.24;57.16;99881.34;668527;1263;139169;-76
2023/09/21 09:12:28;;;;;;;5.80;2.60;;;;;;;28.22;56.92;99873.73;668097;1264;139562;-77
2023/09/21 09:27:33;;;;;;;4.00;2.80;;;;;;;28.35;57.71;99859.12;668840;1263;138517;-78
2023/09/21 09:42:40;;;;;;;7.00;3.30;;;;;;;28.40;57.67;99846.42;668386;1260;138408;-77
2023/09/21 09:57:46;;;;;;;6.60;2.50;;;;;;;28.68;57.41;99832.15;668809;1263;138074;-77
2023/09/21 10:12:52;;;;;;;22.30;20.00;;;;;;;28.64;58.15;99822.55;668600;1263;138234;-76
2023/09/21 10:27:59;;;;;;;4.80;2.40;;;;;;;29.33;57.37;99799.17;668446;1262;138292;-76
2023/09/21 10:43:38;;;;;;;6.20;2.60;;;;;;;29.25;57.11;99778.06;668138;1263;138491;-75
2023/09/21 10:58:41;;;;;;;7.00;2.50;;;;;;;29.41;57.23;99765.02;668163;1264;137905;-77
2023/09/21 11:13:52;;;;;;;6.00;2.30;;;;;;;29.66;56.59;99748.45;668266;1276;138144;-75
2023/09/21 11:28:58;;;;;;;6.90;3.80;;;;;;;29.64;56.72;99742.98;668451;1264;139579;-76
2023/09/21 11:44:06;;;;;;;5.80;3.00;;;;;;;29.35;56.90;99731.05;674767;1264;139232;-76
2023/09/21 11:59:11;;;;;;;;;;;;;;;29.68;57.21;99714.39;668993;1262;138538;-77
2023/09/21 12:14:14;;;;;;;3.40;2.60;;;;;;;29.76;56.96;99699.98;668576;1261;125168;-77
2023/09/21 12:29:18;;;;;;;4.70;2.50;;;;;;;29.86;56.09;99686.38;668751;1263;139842;-76
2023/09/21 12:44:21;;;;;;;7.00;2.50;;;;;;;29.90;56.49;99678.88;669080;1262;137782;-77
2023/09/21 12:59:25;;;;;;;5.70;3.00;;;;;;;29.79;56.65;99662.93;669410;1262;139341;-77
2023/09/21 13:21:15;;;;;;;8.80;3.30;;;;;;;29.78;56.59;99629.77;651444;1302;545414;-78
2023/09/21 13:36:20;;;;;;;6.30;2.80;;;;;;;29.47;56.65;99623.27;664288;1273;139202;-77
2023/09/21 13:51:23;;;;;;;7.30;2.50;;;;;;;29.63;56.81;99611.41;665181;1270;139552;-77
2023/09/21 14:06:28;;;;;;;7.00;2.70;;;;;;;29.53;56.48;99598.11;664048;1273;138406;-77
2023/09/21 14:21:32;;;;;;;5.10;2.60;;;;;;;29.28;55.96;99591.52;665524;1269;137938;-76
2023/09/21 14:36:35;;;;;;;6.10;2.80;;;;;;;29.19;56.08;99580.20;668605;1265;139141;-77
2023/09/21 14:51:43;;;;;;;5.40;2.40;;;;;;;28.87;56.67;99572.16;668871;1264;138188;-77
2023/09/21 15:06:47;;;;;;;6.70;2.60;;;;;;;28.85;57.43;99565.25;668371;1266;139403;-76
2023/09/21 15:21:51;;;;;;;4.90;2.20;;;;;;;28.69;57.48;99551.80;668250;1265;139166;-77
2023/09/21 15:36:54;;;;;;;7.20;3.90;;;;;;;28.44;58.15;99542.54;669825;1265;138618;-79
2023/09/21 15:51:59;;;;;;;4.10;2.50;;;;;;;28.21;58.70;99535.99;669200;1262;138465;-76
2023/09/21 16:07:03;;;;;;;8.80;2.60;;;;;;;27.76;58.77;99529.42;668720;1276;138147;-77
2023/09/21 16:22:07;;;;;;;4.10;2.10;;;;;;;27.32;59.67;99525.16;668300;1262;138223;-76
2023/09/21 16:37:10;;;;;;;8.20;5.30;;;;;;;26.68;61.67;99532.08;667700;1266;138778;-77
2023/09/21 16:52:17;;;;;;;6.00;2.80;;;;;;;26.11;64.11;99536.83;667814;1263;138277;-77
2023/09/21 17:07:20;;;;;;;9.80;3.50;;;;;;;25.60;65.49;99537.75;671813;1266;138147;-78
2023/09/21 17:22:23;;;;;;;4.80;3.10;;;;;;;25.15;66.41;99533.73;675202;1260;137936;-79
2023/09/21 17:37:34;;;;;;;4.40;3.20;;;;;;;24.72;66.90;99533.75;669580;1267;137857;-78
2023/09/21 17:52:38;;;;;;;6.20;3.80;;;;;;;24.26;69.11;99533.49;668388;1271;137981;-77
2023/09/21 18:07:42;;;;;;;6.40;3.40;;;;;;;23.87;70.37;99532.95;669403;1265;138396;-77
2023/09/21 18:22:45;;;;;;;7.50;3.20;;;;;;;23.72;71.36;99531.80;670051;1265;138728;-79
2023/09/21 18:37:50;;;;;;;8.60;3.20;;;;;;;23.57;71.25;99532.82;667920;1265;137617;-78
2023/09/21 18:52:53;;;;;;;6.50;3.20;;;;;;;23.33;71.59;99524.83;667894;1266;139208;-78
2023/09/21 19:07:56;;;;;;;6.40;2.90;;;;;;;22.99;73.20;99531.23;669606;1265;138275;-76
2023/09/21 19:23:01;;;;;;;7.30;3.10;;;;;;;22.66;75.98;99521.21;673046;1265;138967;-78
2023/09/21 19:38:07;;;;;;;7.80;3.00;;;;;;;22.45;76.62;99509.75;673417;1265;139209;-77
2023/09/21 19:53:13;;;;;;;;;;;;;;;22.37;77.85;99505.44;670461;1266;142019;-78
2023/09/21 20:08:17;;;;;;;3.70;2.30;;;;;;;22.38;78.02;99497.08;667931;1263;125657;-77
2023/09/21 20:23:20;;;;;;;8.50;3.40;;;;;;;22.29;78.42;99483.44;667619;1266;138892;-77
2023/09/21 20:38:24;;;;;;;5.10;2.50;;;;;;;22.14;79.78;99476.95;667816;1262;139000;-77
2023/09/21 20:53:29;;;;;;;4.20;2.80;;;;;;;21.94;80.66;99469.75;667853;1266;138925;-76
2023/09/21 21:08:32;;;;;;;5.40;3.50;;;;;;;21.80;81.59;99458.09;667613;1265;139957;-77
2023/09/21 21:23:36;;;;;;;5.40;3.10;;;;;;;21.69;82.24;99443.94;668157;1276;138882;-78
2023/09/21 21:38:39;;;;;;;9.50;3.30;;;;;;;21.61;83.18;99431.25;668241;1265;139111;-78
2023/09/21 21:53:43;;;;;;;6.30;3.80;;;;;;;21.48;84.02;99412.13;667727;1263;139133;-77
2023/09/21 22:08:53;;;;;;;6.30;3.50;;;;;;;21.34;86.10;99401.57;668165;1265;139925;-77
2023/09/21 22:23:56;;;;;;;13.00;3.70;;;;;;;21.29;85.25;99387.48;668183;1266;138770;-76
2023/09/21 22:39:00;;;;;;;9.50;3.70;;;;;;;21.05;86.57;99373.95;668563;1263;138802;-80
2023/09/21 22:54:04;;;;;;;6.60;3.50;;;;;;;20.97;87.95;99361.15;675793;1263;138954;-78
2023/09/21 23:09:09;;;;;;;9.60;3.50;;;;;;;20.84;88.33;99346.64;669791;1265;138601;-78
2023/09/21 23:24:15;;;;;;;5.00;3.10;;;;;;;20.76;90.38;99337.14;668154;1265;139712;-78
2023/09/21 23:39:19;;;;;;;5.30;3.80;;;;;;;20.68;91.29;99325.84;668314;1263;139102;-77
2023/09/21 23:54:22;;;;;;;9.10;4.60;;;;;;;20.59;91.86;99317.84;667667;1263;139292;-78
